createdAt,value
2019-02-15T00:01:10.251Z,13
2019-02-15T00:11:15.122Z,9
2019-02-15T00:16:17.741Z,10
2019-02-15T00:21:20.053Z,11
2019-02-15T00:26:22.514Z,10
2019-02-15T00:31:24.948Z,11
2019-02-15T00:36:27.410Z,9
2019-02-15T00:41:29.887Z,7
2019-02-15T00:46:32.357Z,9
2019-02-15T00:51:34.784Z,7
2019-02-15T00:56:37.252Z,10
2019-02-15T01:01:39.744Z,7
2019-02-15T01:06:42.168Z,9
2019-02-15T01:11:44.663Z,8
2019-02-15T01:16:47.163Z,9
2019-02-15T01:21:49.540Z,9
2019-02-15T01:26:52.023Z,10
2019-02-15T01:31:54.474Z,8
2019-02-15T01:36:56.978Z,9
2019-02-15T01:41:59.377Z,8
2019-02-15T01:47:07.199Z,6
2019-02-15T01:52:04.313Z,10
2019-02-15T01:57:06.766Z,10
2019-02-15T02:02:09.197Z,9
2019-02-15T02:07:11.668Z,9
2019-02-15T02:12:14.130Z,9
2019-02-15T02:17:16.681Z,8
2019-02-15T02:22:19.028Z,8
2019-02-15T02:27:21.479Z,8
2019-02-15T02:32:23.953Z,9
2019-02-15T02:37:26.396Z,10
2019-02-15T02:42:28.871Z,7
2019-02-15T02:47:31.426Z,6
2019-02-15T02:52:33.781Z,5
2019-02-15T02:57:36.248Z,6
2019-02-15T03:02:38.734Z,5
2019-02-15T03:07:41.219Z,7
2019-02-15T03:12:43.608Z,6
2019-02-15T03:17:46.130Z,7
2019-02-15T03:22:48.547Z,4
2019-02-15T03:27:50.975Z,3
2019-02-15T03:32:53.448Z,3
2019-02-15T03:37:55.920Z,4
2019-02-15T03:42:58.509Z,4
2019-02-15T03:48:00.831Z,4
2019-02-15T03:53:03.267Z,3
2019-02-15T03:58:05.759Z,3
2019-02-15T04:03:08.202Z,4
2019-02-15T04:08:10.636Z,5
2019-02-15T04:13:13.114Z,4
2019-02-15T04:18:15.572Z,3
2019-02-15T04:23:18.135Z,3
2019-02-15T04:28:20.486Z,5
2019-02-15T04:33:22.913Z,4
2019-02-15T04:38:25.372Z,5
2019-02-15T04:43:27.863Z,6
2019-02-15T04:48:30.346Z,4
2019-02-15T04:53:32.745Z,5
2019-02-15T04:58:35.206Z,4
2019-02-15T05:03:37.705Z,4
2019-02-15T05:08:45.138Z,3
2019-02-15T05:13:42.582Z,4
2019-02-15T05:18:45.049Z,7
2019-02-15T05:23:47.649Z,6
2019-02-15T05:28:49.957Z,6
2019-02-15T05:33:52.455Z,5
2019-02-15T05:38:54.867Z,4
2019-02-15T05:43:57.319Z,7
2019-02-15T05:49:00.056Z,5
2019-02-15T05:54:02.287Z,5
2019-02-15T05:59:04.710Z,5
2019-02-15T06:04:07.161Z,5
2019-02-15T06:09:09.592Z,9
2019-02-15T06:14:12.049Z,3
2019-02-15T06:19:14.566Z,4
2019-02-15T06:24:16.973Z,4
2019-02-15T06:29:19.437Z,5
2019-02-15T06:34:21.880Z,4
2019-02-15T06:39:24.339Z,9
2019-02-15T06:44:26.813Z,7
2019-02-15T06:49:29.306Z,10
2019-02-15T06:54:31.731Z,15
2019-02-15T06:59:34.182Z,12
2019-02-15T07:04:36.643Z,9
2019-02-15T07:09:39.155Z,7
2019-02-15T07:14:41.658Z,6
2019-02-15T07:19:44.017Z,9
2019-02-15T07:24:47.241Z,7
2019-02-15T07:29:48.974Z,6
2019-02-15T07:34:51.438Z,7
2019-02-15T07:39:53.872Z,6
2019-02-15T07:44:56.303Z,4
2019-02-15T07:49:58.776Z,4
2019-02-15T07:55:01.294Z,5
2019-02-15T08:00:03.721Z,6
2019-02-15T08:05:06.156Z,6
2019-02-15T08:10:08.607Z,5
2019-02-15T08:15:11.118Z,4
2019-02-15T08:20:13.586Z,5
2019-02-15T08:25:16.014Z,4
2019-02-15T08:30:18.571Z,4
2019-02-15T08:35:21.038Z,4
2019-02-15T08:40:23.371Z,2
2019-02-15T08:45:25.840Z,5
2019-02-15T08:50:28.304Z,8
2019-02-15T08:55:30.747Z,7
2019-02-15T09:00:33.251Z,24
2019-02-15T09:05:35.667Z,31
2019-02-15T09:10:38.128Z,8
2019-02-15T09:15:40.770Z,5
2019-02-15T09:20:43.130Z,5
2019-02-15T09:30:48.048Z,6
2019-02-15T09:35:50.435Z,5
2019-02-15T09:40:52.904Z,6
2019-02-15T09:45:55.383Z,5
2019-02-15T09:50:57.829Z,5
2019-02-15T09:56:00.302Z,6
2019-02-15T10:01:02.762Z,6
2019-02-15T10:06:05.200Z,6
2019-02-15T10:11:07.660Z,8
2019-02-15T10:16:10.111Z,8
2019-02-15T10:21:12.571Z,9
2019-02-15T10:26:15.144Z,8
2019-02-15T10:31:17.592Z,7
2019-02-15T10:41:22.431Z,7
2019-02-15T10:46:24.894Z,7
2019-02-15T10:51:27.381Z,6
2019-02-15T10:56:29.831Z,8
2019-02-15T11:01:32.413Z,7
2019-02-15T11:06:34.752Z,6
2019-02-15T11:11:37.172Z,6
2019-02-15T11:16:46.928Z,4
2019-02-15T11:21:42.159Z,3
2019-02-15T11:26:44.571Z,4
2019-02-15T11:31:47.021Z,3
2019-02-15T11:36:49.473Z,3
2019-02-15T11:41:51.973Z,3
2019-02-15T11:46:56.653Z,2
2019-02-15T11:51:56.974Z,3
2019-02-15T11:56:59.327Z,2
2019-02-15T12:02:05.986Z,3
2019-02-15T12:07:04.282Z,2
2019-02-15T12:12:10.563Z,2
2019-02-15T12:17:09.173Z,2
2019-02-15T12:22:11.621Z,2
2019-02-15T12:27:14.143Z,3
2019-02-15T12:32:16.805Z,3
2019-02-15T12:37:19.085Z,2
2019-02-15T12:42:21.507Z,2
2019-02-15T12:47:23.925Z,2
2019-02-15T12:52:26.384Z,2
2019-02-15T12:57:28.846Z,3
2019-02-15T13:02:31.414Z,3
2019-02-15T13:07:33.823Z,2
2019-02-15T13:12:36.333Z,2
2019-02-15T13:17:38.855Z,2
2019-02-15T13:22:41.180Z,3
2019-02-15T13:27:43.696Z,4
2019-02-15T13:32:46.107Z,2
2019-02-15T13:37:48.582Z,2
2019-02-15T13:42:50.975Z,3
2019-02-15T13:47:53.517Z,3
2019-02-15T13:52:55.942Z,3
2019-02-15T13:57:58.361Z,7
2019-02-15T14:03:00.818Z,4
2019-02-15T14:08:03.275Z,3
2019-02-15T14:13:05.737Z,3
2019-02-15T14:18:08.227Z,3
2019-02-15T14:23:10.660Z,4
2019-02-15T14:28:13.111Z,3
2019-02-15T14:33:15.573Z,3
2019-02-15T14:38:18.036Z,2
2019-02-15T14:43:20.532Z,3
2019-02-15T14:48:22.939Z,2
2019-02-15T14:53:25.481Z,3
2019-02-15T14:58:27.856Z,2
2019-02-15T15:03:30.356Z,3
2019-02-15T15:08:33.123Z,3
2019-02-15T15:13:35.297Z,2
2019-02-15T15:18:37.753Z,3
2019-02-15T15:23:40.170Z,5
2019-02-15T15:28:42.603Z,2
2019-02-15T15:33:45.071Z,3
2019-02-15T15:38:47.652Z,3
2019-02-15T15:43:49.992Z,6
2019-02-15T15:48:52.446Z,14
2019-02-15T15:53:55.094Z,11
2019-02-15T15:58:57.347Z,35
2019-02-15T16:03:59.815Z,2
2019-02-15T16:09:02.321Z,3
2019-02-15T16:14:04.732Z,9
2019-02-15T16:19:07.289Z,11
2019-02-15T16:24:12.476Z,18
2019-02-15T16:29:13.906Z,22
2019-02-15T16:34:14.554Z,10
2019-02-15T16:39:17.004Z,16
2019-02-15T16:44:19.500Z,22
2019-02-15T16:49:21.987Z,14
2019-02-15T16:54:24.386Z,15
2019-02-15T16:59:26.841Z,8
2019-02-15T17:04:29.297Z,13
2019-02-15T17:09:31.759Z,15
2019-02-15T17:14:34.298Z,15
2019-02-15T17:19:36.669Z,19
2019-02-15T17:24:39.129Z,21
2019-02-15T17:29:41.587Z,12
2019-02-15T17:34:44.052Z,15
2019-02-15T17:39:46.588Z,28
2019-02-15T17:44:49.049Z,23
2019-02-15T17:49:51.446Z,19
2019-02-15T17:54:54.038Z,78
2019-02-15T17:59:56.337Z,62
2019-02-15T18:04:58.807Z,48
2019-02-15T18:10:01.346Z,38
2019-02-15T18:15:03.785Z,32
2019-02-15T18:20:06.222Z,23
2019-02-15T18:25:08.663Z,25
2019-02-15T18:30:11.073Z,23
2019-02-15T18:35:13.537Z,53
2019-02-15T18:40:15.994Z,9
2019-02-15T18:45:18.440Z,45
2019-02-15T18:50:20.971Z,33
2019-02-15T18:55:23.355Z,21
2019-02-15T19:00:25.881Z,32
2019-02-15T19:05:28.278Z,27
2019-02-15T19:10:30.774Z,17
2019-02-15T19:15:33.200Z,24
2019-02-15T19:20:35.664Z,16
2019-02-15T19:25:38.135Z,16
2019-02-15T19:30:40.611Z,17
2019-02-15T19:35:43.390Z,30
2019-02-15T19:40:45.569Z,24
2019-02-15T19:45:48.090Z,27
2019-02-15T19:50:50.542Z,24
2019-02-15T19:55:53.013Z,21
2019-02-15T20:00:55.540Z,22
2019-02-15T20:05:57.958Z,19
2019-02-15T20:11:00.417Z,18
2019-02-15T20:16:02.890Z,24
2019-02-15T20:21:05.384Z,23
2019-02-15T20:26:07.811Z,25
2019-02-15T20:31:10.266Z,35
2019-02-15T20:36:12.778Z,31
2019-02-15T20:41:15.214Z,25
2019-02-15T20:46:17.670Z,21
2019-02-15T20:51:20.134Z,18
2019-02-15T20:56:22.643Z,17
2019-02-15T21:01:25.065Z,18
2019-02-15T21:06:27.567Z,21
2019-02-15T21:11:30.069Z,20
2019-02-15T21:16:32.542Z,31
2019-02-15T21:21:34.929Z,19
2019-02-15T21:26:37.764Z,17
2019-02-15T21:31:39.861Z,16
2019-02-15T21:36:42.345Z,14
2019-02-15T21:41:44.795Z,15
2019-02-15T21:46:47.273Z,15
2019-02-15T21:51:49.716Z,21
2019-02-15T21:56:52.185Z,14
2019-02-15T22:01:54.650Z,17
2019-02-15T22:06:57.125Z,17
2019-02-15T22:11:59.585Z,20
2019-02-15T22:17:02.058Z,13
2019-02-15T22:22:04.487Z,11
2019-02-15T22:27:06.948Z,14
2019-02-15T22:32:09.420Z,16
2019-02-15T22:37:11.911Z,11
2019-02-15T22:42:14.343Z,10
2019-02-15T22:52:19.296Z,68
2019-02-15T22:57:21.786Z,26
2019-02-15T23:02:24.251Z,19
2019-02-15T23:07:26.687Z,13
2019-02-15T23:12:29.130Z,15
2019-02-15T23:17:31.630Z,12
2019-02-15T23:22:34.143Z,12
2019-02-15T23:27:36.545Z,14
2019-02-15T23:32:38.978Z,16
2019-02-15T23:37:41.443Z,9
2019-02-15T23:42:43.911Z,13
2019-02-15T23:47:46.397Z,10
2019-02-15T23:52:48.849Z,9
2019-02-15T23:57:51.301Z,9
